Hauptseite
METAR-TAF:

METAR-TAF

Flughäfen :

Stuttgart, Deutschland

Flughafen Stuttgart

Breite: 48-41N, Länge: 009-13E, Höhe: 396 m

Beobachtung

Neuester Wetterbericht von vor 29 Minuten, um 05:20 UTC
Wind 12 kt aus Nordost
Temperatur -6°C
Luftfeuchtigkeit 79%
Luftdruck 1032 hPa
Sichtweite 10 km oder mehr
Aufgelockert bewölkt in der Höhe von 3100 ft

METAR: EDDS 180520Z 05012KT 9999 SCT031 M06/M09 Q1032 NOSIG

Zeit: 06:49 (05:49 UTC)

Prognose

Neuester Wetterbericht von vor 49 Minuten, um 05:00 UTC
Gültige Prognose vom 18 um 06 UTC bis 19 um 06 UTC
Wind 10 kt aus Ost/Nordost
Sichtweite 10 km oder mehr
keine Wolken unter 1500 m und keine Kumulonimbus oder Gewitterwolken

TAF: EDDS 180500Z 1806/1906 06010KT CAVOK

Wetterbeobachtungen und Prognosen von mehr als 4000 Flughäfen (METAR und TAF Bericht).

Die verfügbaren Stationen werden durch gelbe und rote Markierungen auf der Karte dargestellt.

Führen Sie die Maus auf sie, um den Namen der Station zu sehen.

Darauf klicken, um die Beobachtung von Wetterbeobachtungen und Prognosen zu sehen.

Um die Karte zu ändern : klicken Sie auf den grünen Tasten mit einem schwarzen Kreuz Zum Vergrößern, auf den grünen Button mit einem Gedankenstrich zu verkleinern, oder auf die grünen Pfeile für benachbarte Karten.


METAR-TAF: